Terminal Aerodrome Forecast
Issued by NWS Twin Cities, MN

Home | Current Version | Previous Version | Graphics & Text | Print | Product List | Glossary On
Versions: 1 2 3 4 5 6 7 8 9 10 11 12 13 14 15
000
FTUS43 KMPX 191100 RRA
TAFEAU
TAF
KEAU 191142Z 1912/2012 16007KT P6SM SCT100 BKN250
     FM191500 17014KT P6SM BKN120
     FM191700 18018G23KT P6SM VCSH SCT025 OVC035
     FM200200 19015KT P6SM VCTS BKN025CB OVC045
     FM200600 23008KT P6SM BKN250=

USA.gov is the U.S. government's official web portal to all federal, state and local government web resources and services.